sensor_id;sensor_type;location;lat;lon;timestamp;P1;durP1;ratioP1;P2;durP2;ratioP2
43628;SDS011;56545;48.224;11.678;2022-12-26T00:00:55;4.45;;;1.33;;
43628;SDS011;56545;48.224;11.678;2022-12-26T00:03:23;3.13;;;1.48;;
43628;SDS011;56545;48.224;11.678;2022-12-26T00:05:49;2.85;;;1.30;;
43628;SDS011;56545;48.224;11.678;2022-12-26T00:08:15;5.03;;;1.55;;
43628;SDS011;56545;48.224;11.678;2022-12-26T00:10:41;4.03;;;1.70;;
43628;SDS011;56545;48.224;11.678;2022-12-26T00:13:08;3.67;;;1.63;;
43628;SDS011;56545;48.224;11.678;2022-12-26T00:15:34;3.17;;;1.45;;
43628;SDS011;56545;48.224;11.678;2022-12-26T00:18:03;4.85;;;1.60;;
43628;SDS011;56545;48.224;11.678;2022-12-26T00:20:29;3.40;;;1.65;;
43628;SDS011;56545;48.224;11.678;2022-12-26T00:22:55;3.90;;;1.35;;
43628;SDS011;56545;48.224;11.678;2022-12-26T00:25:20;2.92;;;1.50;;
43628;SDS011;56545;48.224;11.678;2022-12-26T00:27:46;4.07;;;1.70;;
43628;SDS011;56545;48.224;11.678;2022-12-26T00:30:12;3.70;;;1.45;;
43628;SDS011;56545;48.224;11.678;2022-12-26T00:32:38;3.67;;;1.52;;
43628;SDS011;56545;48.224;11.678;2022-12-26T00:35:04;3.70;;;1.52;;
43628;SDS011;56545;48.224;11.678;2022-12-26T00:37:30;4.50;;;1.60;;
43628;SDS011;56545;48.224;11.678;2022-12-26T00:39:56;3.35;;;1.52;;
43628;SDS011;56545;48.224;11.678;2022-12-26T00:42:22;2.97;;;1.50;;
43628;SDS011;56545;48.224;11.678;2022-12-26T00:44:48;3.88;;;1.85;;
43628;SDS011;56545;48.224;11.678;2022-12-26T00:47:14;4.47;;;2.08;;
43628;SDS011;56545;48.224;11.678;2022-12-26T00:49:40;4.15;;;1.70;;
43628;SDS011;56545;48.224;11.678;2022-12-26T00:52:05;4.28;;;1.60;;
43628;SDS011;56545;48.224;11.678;2022-12-26T00:54:31;4.38;;;1.50;;
43628;SDS011;56545;48.224;11.678;2022-12-26T00:56:57;3.72;;;1.60;;
43628;SDS011;56545;48.224;11.678;2022-12-26T00:59:23;3.85;;;1.48;;
43628;SDS011;56545;48.224;11.678;2022-12-26T01:01:49;3.13;;;1.40;;
43628;SDS011;56545;48.224;11.678;2022-12-26T01:04:15;3.50;;;1.55;;
43628;SDS011;56545;48.224;11.678;2022-12-26T01:06:41;2.88;;;1.40;;
43628;SDS011;56545;48.224;11.678;2022-12-26T01:09:07;3.28;;;1.30;;
43628;SDS011;56545;48.224;11.678;2022-12-26T01:11:36;2.85;;;1.52;;
43628;SDS011;56545;48.224;11.678;2022-12-26T01:14:05;3.03;;;1.30;;
43628;SDS011;56545;48.224;11.678;2022-12-26T01:16:33;5.05;;;1.40;;
43628;SDS011;56545;48.224;11.678;2022-12-26T01:18:59;1.27;;;0.80;;
43628;SDS011;56545;48.224;11.678;2022-12-26T01:21:25;2.85;;;1.20;;
43628;SDS011;56545;48.224;11.678;2022-12-26T01:23:51;2.65;;;1.10;;
43628;SDS011;56545;48.224;11.678;2022-12-26T01:26:17;2.13;;;1.13;;
43628;SDS011;56545;48.224;11.678;2022-12-26T01:28:43;2.58;;;1.13;;
43628;SDS011;56545;48.224;11.678;2022-12-26T01:31:08;2.13;;;1.17;;
43628;SDS011;56545;48.224;11.678;2022-12-26T01:33:34;2.88;;;1.05;;
43628;SDS011;56545;48.224;11.678;2022-12-26T01:36:00;3.65;;;1.10;;
43628;SDS011;56545;48.224;11.678;2022-12-26T01:38:26;2.70;;;1.05;;
43628;SDS011;56545;48.224;11.678;2022-12-26T01:40:52;2.15;;;1.10;;
43628;SDS011;56545;48.224;11.678;2022-12-26T01:43:52;2.97;;;1.20;;
43628;SDS011;56545;48.224;11.678;2022-12-26T01:49:12;1.53;;;0.90;;
43628;SDS011;56545;48.224;11.678;2022-12-26T01:51:43;2.80;;;1.17;;
43628;SDS011;56545;48.224;11.678;2022-12-26T01:54:13;5.60;;;1.90;;
43628;SDS011;56545;48.224;11.678;2022-12-26T01:56:40;5.22;;;1.80;;
43628;SDS011;56545;48.224;11.678;2022-12-26T01:59:19;3.38;;;1.33;;
43628;SDS011;56545;48.224;11.678;2022-12-26T02:05:12;3.42;;;1.17;;
43628;SDS011;56545;48.224;11.678;2022-12-26T02:07:56;1.73;;;0.88;;
43628;SDS011;56545;48.224;11.678;2022-12-26T02:10:22;2.15;;;1.00;;
43628;SDS011;56545;48.224;11.678;2022-12-26T02:12:52;1.67;;;1.00;;
43628;SDS011;56545;48.224;11.678;2022-12-26T02:15:18;1.75;;;0.70;;
43628;SDS011;56545;48.224;11.678;2022-12-26T02:17:44;1.85;;;0.90;;
43628;SDS011;56545;48.224;11.678;2022-12-26T02:20:15;2.67;;;0.90;;
43628;SDS011;56545;48.224;11.678;2022-12-26T02:36:23;2.55;;;0.88;;
43628;SDS011;56545;48.224;11.678;2022-12-26T02:39:09;1.08;;;0.68;;
43628;SDS011;56545;48.224;11.678;2022-12-26T02:45:12;1.77;;;0.80;;
43628;SDS011;56545;48.224;11.678;2022-12-26T02:48:30;1.23;;;0.70;;
43628;SDS011;56545;48.224;11.678;2022-12-26T02:54:14;1.58;;;0.80;;
43628;SDS011;56545;48.224;11.678;2022-12-26T02:57:10;1.67;;;0.90;;
43628;SDS011;56545;48.224;11.678;2022-12-26T03:00:00;1.50;;;0.90;;
43628;SDS011;56545;48.224;11.678;2022-12-26T03:03:04;1.50;;;0.70;;
43628;SDS011;56545;48.224;11.678;2022-12-26T03:08:47;1.52;;;0.70;;
43628;SDS011;56545;48.224;11.678;2022-12-26T03:11:39;2.88;;;0.80;;
43628;SDS011;56545;48.224;11.678;2022-12-26T03:14:28;1.33;;;0.70;;
43628;SDS011;56545;48.224;11.678;2022-12-26T03:17:10;2.22;;;0.90;;
43628;SDS011;56545;48.224;11.678;2022-12-26T03:19:45;1.67;;;0.73;;
43628;SDS011;56545;48.224;11.678;2022-12-26T03:22:36;1.20;;;0.73;;
43628;SDS011;56545;48.224;11.678;2022-12-26T03:28:07;2.25;;;0.82;;
43628;SDS011;56545;48.224;11.678;2022-12-26T03:30:33;1.17;;;0.65;;
43628;SDS011;56545;48.224;11.678;2022-12-26T03:33:34;3.92;;;0.95;;
43628;SDS011;56545;48.224;11.678;2022-12-26T03:36:28;2.75;;;0.93;;
43628;SDS011;56545;48.224;11.678;2022-12-26T03:42:32;1.85;;;0.80;;
43628;SDS011;56545;48.224;11.678;2022-12-26T03:51:31;2.53;;;0.75;;
43628;SDS011;56545;48.224;11.678;2022-12-26T03:54:31;2.15;;;0.80;;
43628;SDS011;56545;48.224;11.678;2022-12-26T03:57:41;2.45;;;0.73;;
43628;SDS011;56545;48.224;11.678;2022-12-26T04:00:34;1.63;;;0.63;;
43628;SDS011;56545;48.224;11.678;2022-12-26T04:03:20;1.92;;;0.98;;
43628;SDS011;56545;48.224;11.678;2022-12-26T04:06:11;1.35;;;0.75;;
43628;SDS011;56545;48.224;11.678;2022-12-26T04:09:05;1.70;;;0.90;;
43628;SDS011;56545;48.224;11.678;2022-12-26T04:11:55;3.25;;;0.77;;
43628;SDS011;56545;48.224;11.678;2022-12-26T04:14:48;2.38;;;0.80;;
43628;SDS011;56545;48.224;11.678;2022-12-26T04:17:50;2.38;;;1.00;;
43628;SDS011;56545;48.224;11.678;2022-12-26T04:21:10;1.52;;;0.70;;
43628;SDS011;56545;48.224;11.678;2022-12-26T04:24:01;1.95;;;0.88;;
43628;SDS011;56545;48.224;11.678;2022-12-26T04:26:52;2.05;;;0.80;;
43628;SDS011;56545;48.224;11.678;2022-12-26T04:29:39;1.75;;;0.88;;
43628;SDS011;56545;48.224;11.678;2022-12-26T04:32:34;1.75;;;0.80;;
43628;SDS011;56545;48.224;11.678;2022-12-26T04:38:26;1.10;;;0.60;;
43628;SDS011;56545;48.224;11.678;2022-12-26T04:41:13;1.55;;;0.70;;
43628;SDS011;56545;48.224;11.678;2022-12-26T04:44:01;1.98;;;0.90;;
43628;SDS011;56545;48.224;11.678;2022-12-26T04:46:36;3.65;;;0.90;;
43628;SDS011;56545;48.224;11.678;2022-12-26T04:49:08;1.85;;;0.80;;
43628;SDS011;56545;48.224;11.678;2022-12-26T04:51:55;2.33;;;0.90;;
43628;SDS011;56545;48.224;11.678;2022-12-26T04:54:22;1.92;;;0.80;;
43628;SDS011;56545;48.224;11.678;2022-12-26T04:56:48;2.42;;;1.00;;
43628;SDS011;56545;48.224;11.678;2022-12-26T04:59:14;4.20;;;1.00;;
43628;SDS011;56545;48.224;11.678;2022-12-26T05:01:41;2.38;;;1.20;;
43628;SDS011;56545;48.224;11.678;2022-12-26T05:04:26;2.05;;;0.93;;
43628;SDS011;56545;48.224;11.678;2022-12-26T05:07:15;3.33;;;1.00;;
43628;SDS011;56545;48.224;11.678;2022-12-26T05:10:14;2.13;;;1.00;;
43628;SDS011;56545;48.224;11.678;2022-12-26T05:12:45;1.85;;;0.80;;
43628;SDS011;56545;48.224;11.678;2022-12-26T05:15:11;2.90;;;1.10;;
43628;SDS011;56545;48.224;11.678;2022-12-26T05:17:38;1.75;;;0.90;;
43628;SDS011;56545;48.224;11.678;2022-12-26T05:20:22;1.70;;;0.80;;
43628;SDS011;56545;48.224;11.678;2022-12-26T05:26:03;2.53;;;0.90;;
43628;SDS011;56545;48.224;11.678;2022-12-26T05:28:58;2.88;;;0.95;;
43628;SDS011;56545;48.224;11.678;2022-12-26T05:31:24;3.53;;;1.10;;
43628;SDS011;56545;48.224;11.678;2022-12-26T05:33:50;2.03;;;0.80;;
43628;SDS011;56545;48.224;11.678;2022-12-26T05:36:36;2.35;;;0.88;;
43628;SDS011;56545;48.224;11.678;2022-12-26T05:39:02;3.30;;;1.00;;
43628;SDS011;56545;48.224;11.678;2022-12-26T05:41:29;1.92;;;0.90;;
43628;SDS011;56545;48.224;11.678;2022-12-26T05:43:55;3.42;;;1.05;;
43628;SDS011;56545;48.224;11.678;2022-12-26T05:46:21;2.55;;;1.15;;
43628;SDS011;56545;48.224;11.678;2022-12-26T05:48:47;2.45;;;1.10;;
43628;SDS011;56545;48.224;11.678;2022-12-26T05:51:13;2.22;;;1.00;;
43628;SDS011;56545;48.224;11.678;2022-12-26T05:53:39;3.05;;;1.23;;
43628;SDS011;56545;48.224;11.678;2022-12-26T05:56:06;2.55;;;1.20;;
43628;SDS011;56545;48.224;11.678;2022-12-26T05:58:36;2.78;;;1.10;;
43628;SDS011;56545;48.224;11.678;2022-12-26T06:01:11;2.10;;;1.00;;
43628;SDS011;56545;48.224;11.678;2022-12-26T06:03:42;2.05;;;1.00;;
43628;SDS011;56545;48.224;11.678;2022-12-26T06:06:11;3.47;;;0.95;;
43628;SDS011;56545;48.224;11.678;2022-12-26T06:08:38;2.95;;;1.00;;
43628;SDS011;56545;48.224;11.678;2022-12-26T06:11:05;2.38;;;1.00;;
43628;SDS011;56545;48.224;11.678;2022-12-26T06:13:33;1.85;;;0.95;;
43628;SDS011;56545;48.224;11.678;2022-12-26T06:16:02;2.85;;;1.23;;
43628;SDS011;56545;48.224;11.678;2022-12-26T06:18:30;2.67;;;1.20;;
43628;SDS011;56545;48.224;11.678;2022-12-26T06:20:56;2.97;;;1.20;;
43628;SDS011;56545;48.224;11.678;2022-12-26T06:23:22;3.38;;;1.10;;
43628;SDS011;56545;48.224;11.678;2022-12-26T06:25:52;4.35;;;1.33;;
43628;SDS011;56545;48.224;11.678;2022-12-26T06:28:19;4.85;;;1.70;;
43628;SDS011;56545;48.224;11.678;2022-12-26T06:30:45;3.33;;;1.23;;
43628;SDS011;56545;48.224;11.678;2022-12-26T06:33:11;2.72;;;1.30;;
43628;SDS011;56545;48.224;11.678;2022-12-26T06:35:37;1.70;;;1.00;;
43628;SDS011;56545;48.224;11.678;2022-12-26T06:38:03;2.78;;;1.10;;
43628;SDS011;56545;48.224;11.678;2022-12-26T06:40:29;4.25;;;1.10;;
43628;SDS011;56545;48.224;11.678;2022-12-26T06:42:55;3.30;;;1.20;;
43628;SDS011;56545;48.224;11.678;2022-12-26T06:45:21;2.70;;;1.00;;
43628;SDS011;56545;48.224;11.678;2022-12-26T06:47:46;2.67;;;1.00;;
43628;SDS011;56545;48.224;11.678;2022-12-26T06:50:12;4.75;;;1.05;;
43628;SDS011;56545;48.224;11.678;2022-12-26T06:52:38;3.15;;;1.15;;
43628;SDS011;56545;48.224;11.678;2022-12-26T06:55:04;2.88;;;1.10;;
43628;SDS011;56545;48.224;11.678;2022-12-26T06:57:30;2.55;;;1.08;;
43628;SDS011;56545;48.224;11.678;2022-12-26T06:59:56;2.97;;;1.20;;
43628;SDS011;56545;48.224;11.678;2022-12-26T07:02:22;3.47;;;1.20;;
43628;SDS011;56545;48.224;11.678;2022-12-26T07:04:48;3.13;;;1.20;;
43628;SDS011;56545;48.224;11.678;2022-12-26T07:07:14;3.10;;;1.45;;
43628;SDS011;56545;48.224;11.678;2022-12-26T07:09:40;3.72;;;1.40;;
43628;SDS011;56545;48.224;11.678;2022-12-26T07:12:06;3.58;;;1.52;;
43628;SDS011;56545;48.224;11.678;2022-12-26T07:14:32;3.95;;;1.80;;
43628;SDS011;56545;48.224;11.678;2022-12-26T07:16:58;3.10;;;1.50;;
43628;SDS011;56545;48.224;11.678;2022-12-26T07:19:24;4.57;;;1.70;;
43628;SDS011;56545;48.224;11.678;2022-12-26T07:21:50;3.60;;;1.52;;
43628;SDS011;56545;48.224;11.678;2022-12-26T07:24:16;3.50;;;1.20;;
43628;SDS011;56545;48.224;11.678;2022-12-26T07:26:44;2.70;;;1.15;;
43628;SDS011;56545;48.224;11.678;2022-12-26T07:29:11;3.25;;;1.40;;
43628;SDS011;56545;48.224;11.678;2022-12-26T07:31:37;3.00;;;1.20;;
43628;SDS011;56545;48.224;11.678;2022-12-26T07:34:04;3.10;;;1.20;;
43628;SDS011;56545;48.224;11.678;2022-12-26T07:36:29;3.22;;;1.17;;
43628;SDS011;56545;48.224;11.678;2022-12-26T07:38:56;2.53;;;1.20;;
43628;SDS011;56545;48.224;11.678;2022-12-26T07:41:22;5.65;;;2.22;;
43628;SDS011;56545;48.224;11.678;2022-12-26T07:44:07;2.60;;;1.23;;
43628;SDS011;56545;48.224;11.678;2022-12-26T07:46:34;1.77;;;1.00;;
43628;SDS011;56545;48.224;11.678;2022-12-26T07:49:00;4.72;;;1.40;;
43628;SDS011;56545;48.224;11.678;2022-12-26T07:51:27;2.58;;;1.20;;
43628;SDS011;56545;48.224;11.678;2022-12-26T07:53:53;3.80;;;1.60;;
43628;SDS011;56545;48.224;11.678;2022-12-26T07:56:19;2.83;;;1.40;;
43628;SDS011;56545;48.224;11.678;2022-12-26T07:58:48;2.47;;;1.00;;
43628;SDS011;56545;48.224;11.678;2022-12-26T08:01:14;2.92;;;1.15;;
43628;SDS011;56545;48.224;11.678;2022-12-26T08:03:40;2.53;;;1.10;;
43628;SDS011;56545;48.224;11.678;2022-12-26T08:06:08;3.03;;;1.20;;
43628;SDS011;56545;48.224;11.678;2022-12-26T08:08:35;2.60;;;1.10;;
43628;SDS011;56545;48.224;11.678;2022-12-26T08:11:02;2.53;;;1.23;;
43628;SDS011;56545;48.224;11.678;2022-12-26T08:13:29;2.00;;;1.00;;
43628;SDS011;56545;48.224;11.678;2022-12-26T08:15:56;2.40;;;1.17;;
43628;SDS011;56545;48.224;11.678;2022-12-26T08:18:23;2.47;;;1.00;;
43628;SDS011;56545;48.224;11.678;2022-12-26T08:20:49;2.75;;;1.10;;
43628;SDS011;56545;48.224;11.678;2022-12-26T08:23:15;2.05;;;1.00;;
43628;SDS011;56545;48.224;11.678;2022-12-26T08:25:42;2.33;;;1.10;;
43628;SDS011;56545;48.224;11.678;2022-12-26T08:28:08;2.72;;;1.20;;
43628;SDS011;56545;48.224;11.678;2022-12-26T08:30:34;1.75;;;0.93;;
43628;SDS011;56545;48.224;11.678;2022-12-26T08:33:02;6.15;;;3.20;;
43628;SDS011;56545;48.224;11.678;2022-12-26T08:35:28;4.13;;;1.90;;
43628;SDS011;56545;48.224;11.678;2022-12-26T08:37:54;2.80;;;1.20;;
43628;SDS011;56545;48.224;11.678;2022-12-26T08:40:20;3.50;;;1.15;;
43628;SDS011;56545;48.224;11.678;2022-12-26T08:42:46;3.40;;;1.10;;
43628;SDS011;56545;48.224;11.678;2022-12-26T08:45:12;2.42;;;1.02;;
43628;SDS011;56545;48.224;11.678;2022-12-26T08:47:37;1.92;;;1.08;;
43628;SDS011;56545;48.224;11.678;2022-12-26T08:50:03;2.58;;;1.02;;
43628;SDS011;56545;48.224;11.678;2022-12-26T08:52:29;2.72;;;1.30;;
43628;SDS011;56545;48.224;11.678;2022-12-26T08:54:55;3.15;;;1.20;;
43628;SDS011;56545;48.224;11.678;2022-12-26T08:57:21;3.10;;;1.35;;
43628;SDS011;56545;48.224;11.678;2022-12-26T08:59:47;2.35;;;1.13;;
43628;SDS011;56545;48.224;11.678;2022-12-26T09:02:13;2.92;;;1.35;;
43628;SDS011;56545;48.224;11.678;2022-12-26T09:04:39;3.30;;;1.33;;
43628;SDS011;56545;48.224;11.678;2022-12-26T09:07:06;2.55;;;1.30;;
43628;SDS011;56545;48.224;11.678;2022-12-26T09:09:33;3.55;;;1.55;;
43628;SDS011;56545;48.224;11.678;2022-12-26T09:11:59;2.47;;;1.20;;
43628;SDS011;56545;48.224;11.678;2022-12-26T09:14:25;2.20;;;1.35;;
43628;SDS011;56545;48.224;11.678;2022-12-26T09:16:51;2.97;;;1.50;;
43628;SDS011;56545;48.224;11.678;2022-12-26T09:19:18;3.10;;;1.23;;
43628;SDS011;56545;48.224;11.678;2022-12-26T09:21:46;2.25;;;1.30;;
43628;SDS011;56545;48.224;11.678;2022-12-26T09:24:14;2.45;;;1.20;;
43628;SDS011;56545;48.224;11.678;2022-12-26T09:26:41;2.53;;;1.30;;
43628;SDS011;56545;48.224;11.678;2022-12-26T09:29:09;3.72;;;1.40;;
43628;SDS011;56545;48.224;11.678;2022-12-26T09:31:36;2.78;;;1.20;;
43628;SDS011;56545;48.224;11.678;2022-12-26T09:34:03;2.40;;;1.15;;
43628;SDS011;56545;48.224;11.678;2022-12-26T09:36:30;1.75;;;0.98;;
43628;SDS011;56545;48.224;11.678;2022-12-26T09:38:59;2.70;;;1.05;;
43628;SDS011;56545;48.224;11.678;2022-12-26T09:47:20;3.75;;;1.20;;
43628;SDS011;56545;48.224;11.678;2022-12-26T09:57:59;3.80;;;1.83;;
43628;SDS011;56545;48.224;11.678;2022-12-26T10:00:32;2.22;;;1.00;;
43628;SDS011;56545;48.224;11.678;2022-12-26T10:03:07;2.80;;;1.20;;
43628;SDS011;56545;48.224;11.678;2022-12-26T10:05:39;2.50;;;1.10;;
43628;SDS011;56545;48.224;11.678;2022-12-26T10:09:08;2.47;;;1.08;;
43628;SDS011;56545;48.224;11.678;2022-12-26T10:11:09;2.63;;;0.90;;
43628;SDS011;56545;48.224;11.678;2022-12-26T10:13:49;2.45;;;1.10;;
43628;SDS011;56545;48.224;11.678;2022-12-26T10:16:23;3.10;;;1.38;;
43628;SDS011;56545;48.224;11.678;2022-12-26T10:19:03;2.60;;;1.13;;
43628;SDS011;56545;48.224;11.678;2022-12-26T10:21:59;1.90;;;1.10;;
43628;SDS011;56545;48.224;11.678;2022-12-26T10:24:29;1.35;;;0.98;;
43628;SDS011;56545;48.224;11.678;2022-12-26T10:27:01;2.72;;;1.00;;
43628;SDS011;56545;48.224;11.678;2022-12-26T10:32:38;3.05;;;0.90;;
43628;SDS011;56545;48.224;11.678;2022-12-26T10:35:20;1.80;;;1.00;;
43628;SDS011;56545;48.224;11.678;2022-12-26T10:37:58;1.75;;;0.98;;
43628;SDS011;56545;48.224;11.678;2022-12-26T10:40:36;2.55;;;1.13;;
43628;SDS011;56545;48.224;11.678;2022-12-26T10:43:14;2.33;;;1.13;;
43628;SDS011;56545;48.224;11.678;2022-12-26T10:45:51;2.28;;;1.02;;
43628;SDS011;56545;48.224;11.678;2022-12-26T10:48:26;1.48;;;0.93;;
43628;SDS011;56545;48.224;11.678;2022-12-26T10:50:53;3.10;;;1.05;;
43628;SDS011;56545;48.224;11.678;2022-12-26T10:53:19;1.90;;;1.05;;
43628;SDS011;56545;48.224;11.678;2022-12-26T10:55:45;2.25;;;1.08;;
43628;SDS011;56545;48.224;11.678;2022-12-26T11:00:41;1.88;;;1.00;;
43628;SDS011;56545;48.224;11.678;2022-12-26T11:03:09;2.83;;;1.08;;
43628;SDS011;56545;48.224;11.678;2022-12-26T11:05:39;1.55;;;0.93;;
43628;SDS011;56545;48.224;11.678;2022-12-26T11:08:14;1.63;;;1.00;;
43628;SDS011;56545;48.224;11.678;2022-12-26T11:11:04;4.05;;;1.40;;
43628;SDS011;56545;48.224;11.678;2022-12-26T11:14:07;3.15;;;1.40;;
43628;SDS011;56545;48.224;11.678;2022-12-26T11:16:28;3.42;;;1.27;;
43628;SDS011;56545;48.224;11.678;2022-12-26T11:18:58;2.22;;;1.15;;
43628;SDS011;56545;48.224;11.678;2022-12-26T11:21:25;2.08;;;1.05;;
43628;SDS011;56545;48.224;11.678;2022-12-26T11:24:09;2.85;;;1.23;;
43628;SDS011;56545;48.224;11.678;2022-12-26T11:29:19;2.92;;;1.10;;
43628;SDS011;56545;48.224;11.678;2022-12-26T11:32:00;3.45;;;1.25;;
43628;SDS011;56545;48.224;11.678;2022-12-26T11:37:23;3.72;;;1.50;;
43628;SDS011;56545;48.224;11.678;2022-12-26T11:39:51;2.88;;;1.10;;
43628;SDS011;56545;48.224;11.678;2022-12-26T11:42:19;4.00;;;1.30;;
43628;SDS011;56545;48.224;11.678;2022-12-26T11:44:47;3.25;;;1.10;;
43628;SDS011;56545;48.224;11.678;2022-12-26T11:47:21;3.47;;;1.42;;
43628;SDS011;56545;48.224;11.678;2022-12-26T11:50:09;3.13;;;1.50;;
43628;SDS011;56545;48.224;11.678;2022-12-26T12:03:05;2.63;;;1.30;;
43628;SDS011;56545;48.224;11.678;2022-12-26T12:11:19;2.72;;;1.20;;
43628;SDS011;56545;48.224;11.678;2022-12-26T12:13:56;5.55;;;1.50;;
43628;SDS011;56545;48.224;11.678;2022-12-26T12:32:44;5.43;;;2.15;;
43628;SDS011;56545;48.224;11.678;2022-12-26T12:40:47;6.68;;;2.33;;
43628;SDS011;56545;48.224;11.678;2022-12-26T12:43:37;8.18;;;2.20;;
43628;SDS011;56545;48.224;11.678;2022-12-26T12:51:32;7.18;;;2.85;;
43628;SDS011;56545;48.224;11.678;2022-12-26T12:54:17;6.70;;;3.17;;
43628;SDS011;56545;48.224;11.678;2022-12-26T12:57:29;11.38;;;3.97;;
43628;SDS011;56545;48.224;11.678;2022-12-26T13:00:27;10.75;;;4.25;;
43628;SDS011;56545;48.224;11.678;2022-12-26T13:03:09;8.02;;;3.00;;
43628;SDS011;56545;48.224;11.678;2022-12-26T13:11:06;8.50;;;2.90;;
43628;SDS011;56545;48.224;11.678;2022-12-26T13:14:00;7.97;;;3.10;;
43628;SDS011;56545;48.224;11.678;2022-12-26T13:16:27;9.63;;;4.18;;
43628;SDS011;56545;48.224;11.678;2022-12-26T13:19:05;13.00;;;5.13;;
43628;SDS011;56545;48.224;11.678;2022-12-26T13:21:35;10.63;;;3.75;;
43628;SDS011;56545;48.224;11.678;2022-12-26T13:24:04;11.30;;;4.07;;
43628;SDS011;56545;48.224;11.678;2022-12-26T13:31:57;8.88;;;3.08;;
43628;SDS011;56545;48.224;11.678;2022-12-26T13:34:24;9.80;;;3.90;;
43628;SDS011;56545;48.224;11.678;2022-12-26T13:36:52;11.88;;;4.25;;
43628;SDS011;56545;48.224;11.678;2022-12-26T13:44:35;15.15;;;4.97;;
43628;SDS011;56545;48.224;11.678;2022-12-26T13:47:02;11.63;;;4.57;;
43628;SDS011;56545;48.224;11.678;2022-12-26T13:49:35;8.77;;;4.20;;
43628;SDS011;56545;48.224;11.678;2022-12-26T13:59:40;7.85;;;3.22;;
43628;SDS011;56545;48.224;11.678;2022-12-26T14:07:48;6.72;;;3.10;;
43628;SDS011;56545;48.224;11.678;2022-12-26T14:16:14;7.10;;;2.95;;
43628;SDS011;56545;48.224;11.678;2022-12-26T14:19:02;8.07;;;3.45;;
43628;SDS011;56545;48.224;11.678;2022-12-26T14:25:00;7.05;;;2.75;;
43628;SDS011;56545;48.224;11.678;2022-12-26T14:28:01;7.25;;;2.90;;
43628;SDS011;56545;48.224;11.678;2022-12-26T14:33:24;7.47;;;3.05;;
43628;SDS011;56545;48.224;11.678;2022-12-26T14:44:49;10.73;;;4.10;;
43628;SDS011;56545;48.224;11.678;2022-12-26T14:56:00;6.72;;;3.28;;
43628;SDS011;56545;48.224;11.678;2022-12-26T14:58:46;5.97;;;2.75;;
43628;SDS011;56545;48.224;11.678;2022-12-26T15:09:07;7.15;;;2.42;;
43628;SDS011;56545;48.224;11.678;2022-12-26T15:17:19;5.47;;;2.30;;
43628;SDS011;56545;48.224;11.678;2022-12-26T15:25:55;5.35;;;2.60;;
43628;SDS011;56545;48.224;11.678;2022-12-26T15:29:07;5.13;;;1.88;;
43628;SDS011;56545;48.224;11.678;2022-12-26T15:38:01;5.53;;;2.67;;
43628;SDS011;56545;48.224;11.678;2022-12-26T15:40:23;5.07;;;2.03;;
43628;SDS011;56545;48.224;11.678;2022-12-26T15:43:05;4.65;;;2.20;;
43628;SDS011;56545;48.224;11.678;2022-12-26T15:48:38;3.60;;;1.70;;
43628;SDS011;56545;48.224;11.678;2022-12-26T15:51:08;3.35;;;1.50;;
43628;SDS011;56545;48.224;11.678;2022-12-26T16:02:09;5.28;;;2.33;;
43628;SDS011;56545;48.224;11.678;2022-12-26T16:07:57;4.60;;;1.60;;
43628;SDS011;56545;48.224;11.678;2022-12-26T16:11:16;4.03;;;1.52;;
43628;SDS011;56545;48.224;11.678;2022-12-26T16:13:54;3.58;;;1.42;;
43628;SDS011;56545;48.224;11.678;2022-12-26T16:16:34;4.38;;;1.55;;
43628;SDS011;56545;48.224;11.678;2022-12-26T16:19:16;4.90;;;1.25;;
43628;SDS011;56545;48.224;11.678;2022-12-26T16:21:52;3.22;;;1.10;;
43628;SDS011;56545;48.224;11.678;2022-12-26T16:24:40;3.20;;;0.98;;
43628;SDS011;56545;48.224;11.678;2022-12-26T16:27:07;4.43;;;1.17;;
43628;SDS011;56545;48.224;11.678;2022-12-26T16:29:54;1.73;;;0.80;;
43628;SDS011;56545;48.224;11.678;2022-12-26T16:32:38;1.75;;;0.60;;
43628;SDS011;56545;48.224;11.678;2022-12-26T16:35:06;1.60;;;0.60;;
43628;SDS011;56545;48.224;11.678;2022-12-26T16:37:40;1.42;;;0.60;;
43628;SDS011;56545;48.224;11.678;2022-12-26T16:42:42;1.75;;;0.75;;
43628;SDS011;56545;48.224;11.678;2022-12-26T16:45:19;2.88;;;0.90;;
43628;SDS011;56545;48.224;11.678;2022-12-26T16:47:46;1.08;;;0.50;;
43628;SDS011;56545;48.224;11.678;2022-12-26T16:50:14;1.48;;;0.70;;
43628;SDS011;56545;48.224;11.678;2022-12-26T16:52:43;3.47;;;1.15;;
43628;SDS011;56545;48.224;11.678;2022-12-26T16:57:49;2.20;;;0.90;;
43628;SDS011;56545;48.224;11.678;2022-12-26T17:00:19;2.45;;;1.13;;
43628;SDS011;56545;48.224;11.678;2022-12-26T17:02:47;2.25;;;0.82;;
43628;SDS011;56545;48.224;11.678;2022-12-26T17:05:22;5.47;;;2.17;;
43628;SDS011;56545;48.224;11.678;2022-12-26T17:07:54;5.32;;;2.15;;
43628;SDS011;56545;48.224;11.678;2022-12-26T17:10:24;5.35;;;1.95;;
43628;SDS011;56545;48.224;11.678;2022-12-26T17:12:52;6.82;;;2.47;;
43628;SDS011;56545;48.224;11.678;2022-12-26T17:15:23;6.13;;;2.15;;
43628;SDS011;56545;48.224;11.678;2022-12-26T17:17:53;4.97;;;1.67;;
43628;SDS011;56545;48.224;11.678;2022-12-26T17:30:33;4.78;;;1.45;;
43628;SDS011;56545;48.224;11.678;2022-12-26T17:33:02;7.90;;;3.00;;
43628;SDS011;56545;48.224;11.678;2022-12-26T17:35:37;5.55;;;2.03;;
43628;SDS011;56545;48.224;11.678;2022-12-26T17:38:15;4.72;;;1.95;;
43628;SDS011;56545;48.224;11.678;2022-12-26T17:40:46;5.47;;;2.20;;
43628;SDS011;56545;48.224;11.678;2022-12-26T17:43:19;4.63;;;1.63;;
43628;SDS011;56545;48.224;11.678;2022-12-26T17:45:53;5.25;;;1.92;;
43628;SDS011;56545;48.224;11.678;2022-12-26T17:48:18;4.07;;;1.52;;
43628;SDS011;56545;48.224;11.678;2022-12-26T17:50:46;3.58;;;1.50;;
43628;SDS011;56545;48.224;11.678;2022-12-26T17:56:03;12.30;;;6.72;;
43628;SDS011;56545;48.224;11.678;2022-12-26T17:58:31;3.90;;;1.42;;
43628;SDS011;56545;48.224;11.678;2022-12-26T18:00:58;2.42;;;1.00;;
43628;SDS011;56545;48.224;11.678;2022-12-26T18:03:24;2.28;;;1.08;;
43628;SDS011;56545;48.224;11.678;2022-12-26T18:05:51;2.13;;;0.80;;
43628;SDS011;56545;48.224;11.678;2022-12-26T18:10:54;2.58;;;0.82;;
43628;SDS011;56545;48.224;11.678;2022-12-26T18:13:20;3.33;;;1.42;;
43628;SDS011;56545;48.224;11.678;2022-12-26T18:15:47;3.78;;;1.58;;
43628;SDS011;56545;48.224;11.678;2022-12-26T18:18:20;4.88;;;1.17;;
43628;SDS011;56545;48.224;11.678;2022-12-26T18:20:49;2.78;;;1.25;;
43628;SDS011;56545;48.224;11.678;2022-12-26T18:23:15;2.30;;;0.93;;
43628;SDS011;56545;48.224;11.678;2022-12-26T18:25:41;1.88;;;0.90;;
43628;SDS011;56545;48.224;11.678;2022-12-26T18:28:11;1.50;;;0.73;;
43628;SDS011;56545;48.224;11.678;2022-12-26T18:30:38;1.05;;;0.60;;
43628;SDS011;56545;48.224;11.678;2022-12-26T18:33:04;1.98;;;0.73;;
43628;SDS011;56545;48.224;11.678;2022-12-26T18:35:30;2.17;;;0.95;;
43628;SDS011;56545;48.224;11.678;2022-12-26T18:37:56;1.30;;;0.70;;
43628;SDS011;56545;48.224;11.678;2022-12-26T18:40:25;1.05;;;0.50;;
43628;SDS011;56545;48.224;11.678;2022-12-26T18:42:59;1.40;;;0.68;;
43628;SDS011;56545;48.224;11.678;2022-12-26T18:45:25;2.28;;;0.90;;
43628;SDS011;56545;48.224;11.678;2022-12-26T18:47:52;1.80;;;0.70;;
43628;SDS011;56545;48.224;11.678;2022-12-26T18:50:18;2.30;;;0.90;;
43628;SDS011;56545;48.224;11.678;2022-12-26T18:52:44;1.00;;;0.75;;
43628;SDS011;56545;48.224;11.678;2022-12-26T18:55:10;1.45;;;0.70;;
43628;SDS011;56545;48.224;11.678;2022-12-26T18:57:36;1.15;;;0.52;;
43628;SDS011;56545;48.224;11.678;2022-12-26T19:00:02;1.20;;;0.57;;
43628;SDS011;56545;48.224;11.678;2022-12-26T19:02:29;1.65;;;0.70;;